Time;durP1;ratioP1;P1;durP2;ratioP2;P2;SDS_P1;SDS_P2;PMS_P1;PMS_P2;Temp;Humidity;BMP_temperature;BMP_pressure;BME280_temperature;BME280_humidity;BME280_pressure;Samples;Min_cycle;Max_cycle;Signal;HPM_P1;HPM_P2
2022/03/15 00:00:26;;;;;;;25.20;9.57;;;9.90;99.90;;;;;;4955304;28;20573;-70
2022/03/15 00:02:52;;;;;;;19.13;9.00;;;9.90;99.90;;;;;;4955006;28;20668;-70
2022/03/15 00:05:18;;;;;;;23.97;9.40;;;9.90;99.90;;;;;;4955062;28;20172;-69
2022/03/15 00:07:45;;;;;;;18.00;9.27;;;9.90;99.90;;;;;;4954628;28;20216;-70
2022/03/15 00:10:12;;;;;;;26.13;10.33;;;10.10;99.90;;;;;;4954861;28;20172;-69
2022/03/15 00:12:43;;;;;;;26.00;10.20;;;10.20;99.90;;;;;;4954737;28;20176;-69
2022/03/15 00:15:11;;;;;;;26.60;10.50;;;10.20;99.90;;;;;;4955032;28;20228;-70
2022/03/15 00:17:37;;;;;;;25.17;10.53;;;10.20;99.90;;;;;;4955019;28;20177;-70
2022/03/15 00:20:05;;;;;;;34.60;11.17;;;10.30;99.90;;;;;;4954787;28;20181;-70
2022/03/15 00:22:35;;;;;;;28.43;12.77;;;10.30;99.90;;;;;;4954590;28;20685;-69
2022/03/15 00:25:06;;;;;;;77.00;24.10;;;10.30;99.90;;;;;;4954633;28;20668;-69
2022/03/15 00:27:33;;;;;;;142.30;99.87;;;10.20;99.90;;;;;;4954658;28;20259;-70
2022/03/15 00:29:59;;;;;;;30.27;15.90;;;10.20;99.90;;;;;;4954613;28;20223;-69
2022/03/15 00:32:25;;;;;;;80.07;45.30;;;10.20;99.90;;;;;;4954662;28;20181;-69
2022/03/15 00:34:51;;;;;;;93.50;58.67;;;10.20;99.90;;;;;;4954773;28;20220;-70
2022/03/15 00:37:18;;;;;;;83.23;55.00;;;10.30;99.90;;;;;;4954300;28;20165;-69
2022/03/15 00:39:44;;;;;;;25.17;12.83;;;10.30;99.90;;;;;;4954811;28;20180;-70
2022/03/15 00:42:10;;;;;;;25.67;10.27;;;10.20;99.90;;;;;;4954494;28;20253;-69
2022/03/15 00:44:36;;;;;;;17.57;9.77;;;10.20;99.90;;;;;;4954752;28;20648;-70
2022/03/15 00:47:02;;;;;;;21.97;8.40;;;10.30;99.90;;;;;;4956073;28;20214;-70
2022/03/15 00:49:28;;;;;;;27.50;13.37;;;10.30;99.90;;;;;;4958386;28;20287;-68
2022/03/15 00:51:54;;;;;;;19.77;9.10;;;10.40;99.90;;;;;;4956787;29;20633;-70
2022/03/15 00:54:23;;;;;;;15.03;5.70;;;10.50;99.90;;;;;;4958087;28;20176;-70
2022/03/15 00:56:50;;;;;;;14.77;6.60;;;10.50;99.90;;;;;;4958224;28;20173;-69
2022/03/15 00:59:16;;;;;;;10.50;5.73;;;10.60;99.90;;;;;;4958003;28;20641;-70
2022/03/15 01:01:42;;;;;;;14.00;5.77;;;10.70;99.90;;;;;;4958169;28;20176;-69
2022/03/15 01:04:08;;;;;;;17.77;8.43;;;10.70;99.90;;;;;;4958000;28;20613;-69
2022/03/15 01:06:34;;;;;;;17.70;10.00;;;10.80;99.90;;;;;;4957634;28;20261;-69
2022/03/15 01:09:01;;;;;;;60.37;18.67;;;10.70;99.90;;;;;;4957837;28;20263;-69
2022/03/15 01:11:27;;;;;;;27.03;10.20;;;10.70;99.90;;;;;;4957891;28;20163;-68
2022/03/15 01:13:53;;;;;;;14.73;7.63;;;10.70;99.90;;;;;;4957669;28;20185;-70
2022/03/15 01:16:18;;;;;;;15.93;6.93;;;10.60;99.90;;;;;;4957850;28;20181;-70
2022/03/15 01:18:44;;;;;;;11.43;5.13;;;10.60;99.90;;;;;;4957723;28;20208;-69
2022/03/15 01:21:13;;;;;;;19.23;8.73;;;10.70;99.90;;;;;;4957237;28;20177;-69
2022/03/15 01:23:38;;;;;;;22.73;10.07;;;10.60;99.90;;;;;;4957483;28;20659;-69
2022/03/15 01:26:04;;;;;;;15.37;8.60;;;10.60;99.90;;;;;;4957711;28;20263;-69
2022/03/15 01:28:29;;;;;;;22.67;8.90;;;10.50;99.90;;;;;;4957069;28;20323;-69
2022/03/15 01:30:55;;;;;;;17.27;8.20;;;10.40;99.90;;;;;;4957767;28;20224;-69
2022/03/15 01:33:21;;;;;;;22.00;8.60;;;10.50;99.90;;;;;;4956981;28;20185;-69
2022/03/15 01:35:46;;;;;;;18.67;8.87;;;10.60;99.90;;;;;;4956209;28;20215;-69
2022/03/15 01:38:12;;;;;;;14.37;6.90;;;10.50;99.90;;;;;;4957432;28;20172;-69
2022/03/15 01:40:38;;;;;;;10.03;5.47;;;10.40;99.90;;;;;;4957405;28;20231;-69
2022/03/15 01:43:03;;;;;;;14.00;6.50;;;10.50;99.90;;;;;;4957218;28;20312;-68
2022/03/15 01:45:34;;;;;;;11.90;4.70;;;10.50;99.90;;;;;;4957196;28;20263;-68
2022/03/15 01:48:00;;;;;;;8.70;4.90;;;10.60;99.90;;;;;;4956734;28;20219;-69
2022/03/15 01:50:26;;;;;;;5.57;3.53;;;10.70;99.90;;;;;;4957155;28;20219;-68
2022/03/15 01:52:51;;;;;;;7.10;3.73;;;10.70;99.90;;;;;;4957224;28;20541;-70
2022/03/15 01:55:17;;;;;;;8.63;4.17;;;10.70;99.90;;;;;;4957060;28;20169;-69
2022/03/15 01:57:43;;;;;;;10.13;4.17;;;10.70;99.90;;;;;;4956997;28;20251;-70
2022/03/15 02:00:09;;;;;;;8.47;4.70;;;10.70;99.90;;;;;;4955314;28;20271;-69
2022/03/15 02:02:34;;;;;;;10.40;4.17;;;10.70;99.90;;;;;;4956517;28;20184;-69
2022/03/15 02:05:01;;;;;;;7.13;4.87;;;10.70;99.90;;;;;;4956853;28;20188;-69
2022/03/15 02:07:26;;;;;;;9.43;4.57;;;10.60;99.90;;;;;;4956756;28;20228;-69
2022/03/15 02:09:53;;;;;;;7.53;3.53;;;10.70;99.90;;;;;;4956812;28;20202;-69
2022/03/15 02:12:18;;;;;;;7.07;4.00;;;10.70;99.90;;;;;;4956817;28;20169;-69
2022/03/15 02:14:44;;;;;;;10.53;3.97;;;10.70;99.90;;;;;;4956673;28;20256;-69
2022/03/15 02:17:10;;;;;;;8.40;4.27;;;10.70;99.90;;;;;;4956288;28;20668;-69
2022/03/15 02:19:36;;;;;;;6.87;4.10;;;10.70;99.90;;;;;;4956413;28;20687;-69
2022/03/15 02:22:03;;;;;;;8.27;4.07;;;10.70;99.90;;;;;;4956551;28;20223;-69
2022/03/15 02:24:28;;;;;;;9.60;4.80;;;10.70;99.90;;;;;;4956466;28;20181;-69
2022/03/15 02:26:54;;;;;;;9.80;4.67;;;10.60;99.90;;;;;;4956349;28;20637;-69
2022/03/15 02:29:21;;;;;;;8.50;4.37;;;10.60;99.90;;;;;;4956356;28;20235;-70
2022/03/15 02:31:47;;;;;;;8.03;4.30;;;10.60;99.90;;;;;;4956092;28;20175;-69
2022/03/15 02:34:13;;;;;;;7.13;4.47;;;10.60;99.90;;;;;;4956225;28;20497;-69
2022/03/15 02:36:39;;;;;;;8.00;4.40;;;10.60;99.90;;;;;;4956442;28;20183;-69
2022/03/15 02:39:04;;;;;;;8.13;4.10;;;10.60;99.90;;;;;;4956175;28;20541;-69
2022/03/15 02:41:30;;;;;;;6.43;4.00;;;10.60;99.90;;;;;;4956221;28;20168;-69
2022/03/15 02:43:58;;;;;;;7.03;4.53;;;10.70;99.90;;;;;;4955935;28;20169;-69
2022/03/15 02:46:34;;;;;;;7.30;3.90;;;10.60;99.90;;;;;;4955633;28;20164;-69
2022/03/15 02:49:00;;;;;;;6.13;4.00;;;10.70;99.90;;;;;;4955775;28;20209;-69
2022/03/15 02:51:26;;;;;;;5.80;4.10;;;10.60;99.90;;;;;;4956053;28;20165;-69
2022/03/15 02:53:53;;;;;;;8.27;4.70;;;10.60;99.90;;;;;;4955856;28;20656;-69
2022/03/15 02:56:21;;;;;;;7.50;4.50;;;10.60;99.90;;;;;;4955893;28;20184;-68
2022/03/15 02:58:47;;;;;;;10.40;4.77;;;10.50;99.90;;;;;;4955920;28;20202;-69
2022/03/15 03:01:12;;;;;;;7.83;4.53;;;10.50;99.90;;;;;;4955503;28;20199;-69
2022/03/15 03:03:38;;;;;;;9.67;4.80;;;10.50;99.90;;;;;;4955687;28;20284;-69
2022/03/15 03:06:04;;;;;;;9.73;5.37;;;10.50;99.90;;;;;;4955995;28;20263;-69
2022/03/15 03:08:30;;;;;;;8.80;5.20;;;10.40;99.90;;;;;;4955814;28;20223;-69
2022/03/15 03:10:57;;;;;;;8.70;4.93;;;10.40;99.90;;;;;;4955012;28;20165;-69
2022/03/15 03:13:27;;;;;;;9.47;5.73;;;10.40;99.90;;;;;;4955495;28;20271;-69
2022/03/15 03:15:57;;;;;;;9.37;5.10;;;10.40;99.90;;;;;;4955326;28;20263;-69
2022/03/15 03:18:32;;;;;;;8.73;5.13;;;10.40;99.90;;;;;;4955493;28;20172;-69
2022/03/15 03:21:01;;;;;;;7.83;4.80;;;10.30;99.90;;;;;;4955837;28;20227;-69
2022/03/15 03:23:27;;;;;;;6.50;5.03;;;10.30;99.90;;;;;;4955465;28;20164;-69
2022/03/15 03:25:54;;;;;;;10.07;5.27;;;10.30;99.90;;;;;;4955770;28;20169;-69
2022/03/15 03:28:20;;;;;;;8.40;4.67;;;10.30;99.90;;;;;;4954548;28;20247;-70
2022/03/15 03:30:47;;;;;;;10.63;4.53;;;10.20;99.90;;;;;;4954333;28;20172;-70
2022/03/15 03:33:18;;;;;;;8.47;4.70;;;10.30;99.90;;;;;;4954709;28;20531;-68
2022/03/15 03:35:45;;;;;;;7.50;4.13;;;10.30;99.90;;;;;;4954709;28;20224;-69
2022/03/15 03:38:11;;;;;;;6.63;3.97;;;10.30;99.90;;;;;;4954502;28;20184;-69
2022/03/15 03:40:37;;;;;;;7.57;3.70;;;10.20;99.90;;;;;;4954523;28;20211;-70
2022/03/15 03:43:04;;;;;;;8.87;4.33;;;10.30;99.90;;;;;;4954451;28;20181;-69
2022/03/15 03:45:29;;;;;;;7.83;4.27;;;10.20;99.90;;;;;;4954045;28;20173;-69
2022/03/15 03:47:56;;;;;;;5.87;4.03;;;10.20;99.90;;;;;;4954221;28;20574;-69
2022/03/15 03:50:22;;;;;;;7.10;4.03;;;10.20;99.90;;;;;;4954403;28;20664;-69
2022/03/15 03:52:47;;;;;;;7.10;3.80;;;10.20;99.90;;;;;;4954335;28;20180;-68
2022/03/15 03:55:13;;;;;;;6.57;4.03;;;10.20;99.90;;;;;;4954198;28;20240;-68
2022/03/15 03:57:39;;;;;;;9.27;4.33;;;10.30;99.90;;;;;;4954145;28;20223;-68
2022/03/15 04:00:06;;;;;;;10.63;4.17;;;10.30;99.90;;;;;;4953956;28;20180;-69
2022/03/15 04:02:32;;;;;;;6.03;3.27;;;10.20;99.90;;;;;;4954236;28;20579;-69
2022/03/15 04:04:58;;;;;;;8.40;4.20;;;10.20;99.90;;;;;;4954169;28;20211;-69
2022/03/15 04:07:24;;;;;;;4.27;3.60;;;10.20;99.90;;;;;;4954036;28;20211;-70
2022/03/15 04:09:50;;;;;;;7.40;4.00;;;10.20;99.90;;;;;;4954161;28;20283;-68
2022/03/15 04:12:20;;;;;;;5.30;3.40;;;10.20;99.90;;;;;;4954059;28;20212;-69
2022/03/15 04:14:46;;;;;;;7.87;3.57;;;10.20;99.90;;;;;;4953549;28;20184;-69
2022/03/15 04:17:12;;;;;;;7.20;3.77;;;10.20;99.90;;;;;;4954203;28;20189;-69
2022/03/15 04:19:38;;;;;;;7.43;3.60;;;10.20;99.90;;;;;;4953856;28;20185;-68
2022/03/15 04:22:04;;;;;;;5.53;3.53;;;10.10;99.90;;;;;;4954858;28;20177;-69
2022/03/15 04:24:31;;;;;;;6.80;3.80;;;10.10;99.90;;;;;;4957054;28;20674;-69
2022/03/15 04:26:57;;;;;;;9.20;3.77;;;10.10;99.90;;;;;;4957503;28;20187;-70
2022/03/15 04:29:23;;;;;;;15.10;6.67;;;10.20;99.90;;;;;;4920857;28;1070422;-69
2022/03/15 04:31:49;;;;;;;23.07;7.57;;;9.90;99.90;;;;;;4957471;28;20215;-69
2022/03/15 04:34:14;;;;;;;26.60;8.40;;;9.80;99.90;;;;;;4958443;28;20648;-69
2022/03/15 04:36:41;;;;;;;11.50;5.07;;;9.60;99.90;;;;;;4958276;28;20169;-69
2022/03/15 04:39:06;;;;;;;13.47;5.70;;;9.60;99.90;;;;;;4958197;28;20667;-69
2022/03/15 04:41:32;;;;;;;5.07;3.73;;;9.60;99.90;;;;;;4958132;28;20169;-70
2022/03/15 04:43:58;;;;;;;10.60;4.80;;;9.70;99.90;;;;;;4956657;28;20184;-69
2022/03/15 04:46:24;;;;;;;8.60;4.80;;;9.70;99.90;;;;;;4958126;28;20180;-69
2022/03/15 04:48:49;;;;;;;6.30;4.30;;;9.80;99.90;;;;;;4958021;28;20212;-69
2022/03/15 04:51:15;;;;;;;10.57;5.00;;;9.90;99.90;;;;;;4958196;28;20177;-69
2022/03/15 04:53:41;;;;;;;14.63;5.30;;;10.00;99.90;;;;;;4957736;28;20180;-69
2022/03/15 04:56:06;;;;;;;9.33;4.00;;;9.90;99.90;;;;;;4957712;28;20173;-69
2022/03/15 04:58:32;;;;;;;12.50;5.10;;;9.90;99.90;;;;;;4957539;28;20271;-69
2022/03/15 05:00:58;;;;;;;14.47;6.30;;;10.00;99.90;;;;;;4957664;28;20267;-69
2022/03/15 05:03:24;;;;;;;9.53;5.80;;;9.90;99.90;;;;;;4956267;28;20206;-69
2022/03/15 05:05:50;;;;;;;20.00;6.27;;;9.90;99.90;;;;;;4957788;28;20199;-70
2022/03/15 05:08:15;;;;;;;12.90;6.43;;;9.70;99.90;;;;;;4957458;28;20243;-70
2022/03/15 05:13:26;;;;;;;14.37;6.80;;;9.60;99.90;;;;;;4957155;29;20196;-69
2022/03/15 05:15:53;;;;;;;14.40;7.20;;;9.60;99.90;;;;;;4957501;28;20169;-69
2022/03/15 05:18:19;;;;;;;17.07;7.70;;;9.60;99.90;;;;;;4957456;28;20196;-69
2022/03/15 05:20:45;;;;;;;13.37;6.53;;;9.50;99.90;;;;;;4957461;28;20223;-69
2022/03/15 05:23:10;;;;;;;13.23;6.97;;;9.50;99.90;;;;;;4956960;28;20187;-70
2022/03/15 05:25:36;;;;;;;13.83;5.90;;;9.40;99.90;;;;;;4957038;28;20185;-70
2022/03/15 05:28:02;;;;;;;15.83;6.40;;;9.30;99.90;;;;;;4957063;28;20215;-69
2022/03/15 05:30:28;;;;;;;12.83;5.63;;;9.30;99.90;;;;;;4957319;28;20547;-69
2022/03/15 05:32:53;;;;;;;10.77;4.70;;;9.20;99.90;;;;;;4956035;28;20267;-69
2022/03/15 05:35:19;;;;;;;8.97;4.23;;;9.20;99.90;;;;;;4956941;28;20621;-69
2022/03/15 05:37:45;;;;;;;8.97;4.30;;;9.40;99.90;;;;;;4957159;28;20199;-69
2022/03/15 05:40:11;;;;;;;7.53;3.80;;;9.50;99.90;;;;;;4956612;28;20177;-69
2022/03/15 05:42:37;;;;;;;6.80;3.50;;;9.60;99.90;;;;;;4955259;28;20199;-69
2022/03/15 05:45:03;;;;;;;7.73;4.00;;;9.70;99.90;;;;;;4956775;28;20177;-69
2022/03/15 05:47:29;;;;;;;6.97;3.87;;;9.80;99.90;;;;;;4955511;28;20545;-69
2022/03/15 05:49:54;;;;;;;6.17;3.30;;;9.80;99.90;;;;;;4956496;28;20354;-69
2022/03/15 05:52:20;;;;;;;8.63;3.97;;;9.90;99.90;;;;;;4956719;28;20197;-69
2022/03/15 05:54:46;;;;;;;9.23;3.70;;;9.90;99.90;;;;;;4955943;28;20192;-69
2022/03/15 05:57:11;;;;;;;7.30;3.60;;;9.90;99.90;;;;;;4956503;28;20650;-69
2022/03/15 05:59:37;;;;;;;5.90;3.63;;;9.90;99.90;;;;;;4956285;28;20176;-69
2022/03/15 06:02:03;;;;;;;7.07;3.83;;;9.90;99.90;;;;;;4956082;28;20181;-69
2022/03/15 06:04:28;;;;;;;9.23;3.80;;;10.00;99.90;;;;;;4956148;28;20200;-69
2022/03/15 06:06:55;;;;;;;5.23;3.97;;;9.90;99.90;;;;;;4956222;28;20176;-70
2022/03/15 06:09:22;;;;;;;6.83;4.20;;;10.00;99.90;;;;;;4955652;28;20685;-70
2022/03/15 06:11:48;;;;;;;5.50;4.03;;;10.00;99.90;;;;;;4956011;28;20251;-69
2022/03/15 06:14:14;;;;;;;7.80;3.80;;;10.00;99.90;;;;;;4956190;28;20261;-69
2022/03/15 06:16:39;;;;;;;7.27;4.50;;;10.00;99.90;;;;;;4955475;28;20173;-70
2022/03/15 06:19:05;;;;;;;6.90;4.60;;;10.10;99.90;;;;;;4955408;28;20172;-70
2022/03/15 06:21:30;;;;;;;6.23;4.10;;;10.10;99.90;;;;;;4955603;28;20181;-69
2022/03/15 06:23:56;;;;;;;11.70;5.10;;;10.10;99.90;;;;;;4954003;28;20177;-70
2022/03/15 06:26:22;;;;;;;11.00;5.07;;;10.10;99.90;;;;;;4954124;28;20172;-69
2022/03/15 06:28:48;;;;;;;8.83;4.60;;;10.10;99.90;;;;;;4955425;28;20578;-69
2022/03/15 06:31:14;;;;;;;12.37;4.47;;;10.10;99.90;;;;;;4955541;28;20239;-69
2022/03/15 06:33:42;;;;;;;7.00;4.70;;;10.10;99.90;;;;;;4954954;28;20231;-69
2022/03/15 06:36:11;;;;;;;9.07;4.73;;;10.10;99.90;;;;;;4954932;28;20255;-70
2022/03/15 06:38:42;;;;;;;8.43;3.90;;;10.10;99.90;;;;;;4955651;28;20609;-69
2022/03/15 06:41:11;;;;;;;10.37;4.43;;;10.10;99.90;;;;;;4955000;28;20176;-70
2022/03/15 06:43:39;;;;;;;10.07;4.47;;;10.20;99.90;;;;;;4955045;28;20204;-69
2022/03/15 06:46:05;;;;;;;7.93;3.93;;;10.20;99.90;;;;;;4954440;28;20183;-70
2022/03/15 06:48:31;;;;;;;9.73;4.67;;;10.10;99.90;;;;;;4953645;28;20220;-70
2022/03/15 06:50:56;;;;;;;9.07;4.40;;;10.20;99.90;;;;;;4954595;28;20557;-70
2022/03/15 06:53:22;;;;;;;9.17;4.60;;;10.20;99.90;;;;;;4954511;28;20656;-70
2022/03/15 06:55:48;;;;;;;10.87;4.60;;;10.10;99.90;;;;;;4954717;28;20255;-70
2022/03/15 06:58:14;;;;;;;9.63;4.90;;;10.10;99.90;;;;;;4954703;28;20227;-69
2022/03/15 07:00:40;;;;;;;10.43;5.20;;;10.20;99.90;;;;;;4953713;28;20264;-70
2022/03/15 07:03:06;;;;;;;8.80;4.50;;;10.30;99.90;;;;;;4951755;28;20216;-70
2022/03/15 07:05:32;;;;;;;7.43;4.50;;;10.40;99.90;;;;;;4954374;28;20651;-69
2022/03/15 07:07:58;;;;;;;9.37;4.17;;;10.40;99.90;;;;;;4953759;28;20204;-69
2022/03/15 07:10:23;;;;;;;11.93;5.00;;;10.40;99.90;;;;;;4954427;28;20177;-70
2022/03/15 07:12:49;;;;;;;12.70;5.10;;;10.40;99.90;;;;;;4954583;28;20529;-69
2022/03/15 07:15:16;;;;;;;7.90;4.50;;;10.40;99.90;;;;;;4953820;28;20628;-69
2022/03/15 07:17:55;;;;;;;9.93;4.60;;;10.40;99.90;;;;;;4953966;28;20267;-69
2022/03/15 07:20:22;;;;;;;11.93;5.00;;;10.50;99.90;;;;;;4955219;28;20177;-70
2022/03/15 07:22:48;;;;;;;9.93;5.10;;;10.50;99.90;;;;;;4953848;28;20212;-69
2022/03/15 07:25:14;;;;;;;16.60;5.30;;;10.50;99.90;;;;;;4952972;28;20307;-69
2022/03/15 07:27:40;;;;;;;8.50;4.43;;;10.50;99.90;;;;;;4954134;28;20184;-69
2022/03/15 07:30:06;;;;;;;8.93;4.87;;;10.60;99.90;;;;;;4953325;28;20228;-69
2022/03/15 07:32:32;;;;;;;9.73;4.60;;;10.60;99.90;;;;;;4953832;28;20181;-69
2022/03/15 07:34:58;;;;;;;12.37;4.60;;;10.50;99.90;;;;;;4954464;28;20172;-69
2022/03/15 07:37:23;;;;;;;12.40;4.97;;;10.40;99.90;;;;;;4953449;28;20169;-70
2022/03/15 07:39:49;;;;;;;8.00;4.70;;;10.30;99.90;;;;;;4953483;28;20636;-70
2022/03/15 07:42:15;;;;;;;7.93;4.93;;;10.50;99.90;;;;;;4953103;28;20211;-70
2022/03/15 07:44:42;;;;;;;11.77;4.53;;;10.40;99.90;;;;;;4953869;28;20168;-69
2022/03/15 07:47:13;;;;;;;7.17;4.60;;;10.50;99.90;;;;;;4953501;29;20199;-70
2022/03/15 07:49:39;;;;;;;8.23;4.20;;;10.50;99.90;;;;;;4953143;28;20231;-69
2022/03/15 07:52:05;;;;;;;6.13;4.90;;;10.40;99.90;;;;;;4944498;28;20202;-70
2022/03/15 07:54:31;;;;;;;11.20;4.57;;;10.50;99.90;;;;;;4952383;29;20235;-69
2022/03/15 07:56:57;;;;;;;8.23;4.80;;;10.50;99.90;;;;;;4951881;28;20177;-69
2022/03/15 07:59:22;;;;;;;6.50;4.87;;;10.50;99.90;;;;;;4942740;28;20217;-69
2022/03/15 08:01:48;;;;;;;9.13;5.33;;;10.50;99.90;;;;;;4963590;28;20188;-69
2022/03/15 08:04:14;;;;;;;9.80;5.40;;;10.70;99.90;;;;;;4949803;28;20211;-69
2022/03/15 08:06:40;;;;;;;8.67;5.27;;;10.50;99.90;;;;;;4948722;28;20184;-70
2022/03/15 08:09:06;;;;;;;14.87;8.07;;;10.60;99.90;;;;;;4947391;28;20264;-70
2022/03/15 08:11:32;;;;;;;15.73;7.70;;;10.60;99.90;;;;;;4946222;28;20282;-69
2022/03/15 08:13:59;;;;;;;7.20;5.67;;;10.60;99.90;;;;;;4946612;28;20231;-69
2022/03/15 08:16:25;;;;;;;9.80;5.40;;;10.70;99.90;;;;;;4946198;28;20180;-69
2022/03/15 08:18:52;;;;;;;8.30;4.87;;;10.70;99.90;;;;;;4947963;28;20216;-68
2022/03/15 08:21:19;;;;;;;8.10;5.17;;;10.80;99.90;;;;;;4945698;28;20298;-69
2022/03/15 08:23:45;;;;;;;9.40;4.90;;;10.80;99.90;;;;;;4946230;28;20192;-70
2022/03/15 08:26:11;;;;;;;8.73;4.80;;;10.70;99.90;;;;;;4944597;28;20181;-70
2022/03/15 08:28:37;;;;;;;12.40;5.87;;;10.80;99.90;;;;;;4948823;28;20247;-69
2022/03/15 08:31:03;;;;;;;10.67;5.47;;;10.90;99.90;;;;;;4943436;28;20180;-69
2022/03/15 08:33:28;;;;;;;13.60;6.00;;;10.90;99.90;;;;;;4949494;28;20192;-68
2022/03/15 08:35:54;;;;;;;14.37;6.00;;;10.70;99.90;;;;;;4946920;28;20226;-69
2022/03/15 08:38:20;;;;;;;11.23;5.97;;;10.60;99.90;;;;;;4945225;28;20188;-69
2022/03/15 08:40:46;;;;;;;10.27;6.40;;;10.40;99.90;;;;;;4944260;28;20195;-69
2022/03/15 08:43:12;;;;;;;11.20;6.50;;;10.10;99.90;;;;;;4948935;28;20199;-69
2022/03/15 08:45:39;;;;;;;19.37;6.57;;;10.00;99.90;;;;;;4945946;28;20542;-67
2022/03/15 08:48:05;;;;;;;12.20;6.20;;;10.00;99.90;;;;;;4942295;28;20222;-67
2022/03/15 08:50:31;;;;;;;11.00;5.87;;;9.80;99.90;;;;;;4940080;28;20183;-68
2022/03/15 08:52:57;;;;;;;10.93;6.53;;;9.80;99.90;;;;;;4941267;28;20184;-68
2022/03/15 08:55:24;;;;;;;15.57;6.03;;;9.80;99.90;;;;;;4939275;28;20692;-69
2022/03/15 08:57:49;;;;;;;8.67;5.80;;;9.80;99.90;;;;;;4946933;29;20292;-67
2022/03/15 09:00:15;;;;;;;8.90;5.93;;;9.80;99.90;;;;;;4951288;28;20655;-68
2022/03/15 09:02:41;;;;;;;11.40;6.53;;;9.90;99.90;;;;;;4943028;28;20205;-69
2022/03/15 09:05:07;;;;;;;17.27;6.47;;;10.10;99.90;;;;;;4940673;29;20184;-69
2022/03/15 09:07:36;;;;;;;13.27;6.73;;;10.30;99.90;;;;;;4945951;28;20189;-69
2022/03/15 09:10:02;;;;;;;9.13;5.80;;;10.30;99.90;;;;;;4946884;28;20550;-69
2022/03/15 09:12:27;;;;;;;11.40;6.00;;;10.40;99.90;;;;;;4949090;28;20204;-70
2022/03/15 09:14:54;;;;;;;9.63;5.37;;;10.50;99.90;;;;;;4947744;28;20189;-68
2022/03/15 09:17:19;;;;;;;11.93;5.87;;;10.60;99.90;;;;;;4943236;28;20204;-69
2022/03/15 09:19:45;;;;;;;12.23;5.73;;;10.60;99.90;;;;;;4951771;28;20684;-72
2022/03/15 09:22:11;;;;;;;12.60;5.67;;;10.60;99.90;;;;;;4954330;28;20192;-68
2022/03/15 09:24:37;;;;;;;12.70;5.53;;;10.60;99.90;;;;;;4953503;28;20183;-68
2022/03/15 09:27:04;;;;;;;23.40;6.40;;;10.70;99.90;;;;;;4950120;28;20185;-69
2022/03/15 09:29:31;;;;;;;9.30;5.47;;;10.90;99.90;;;;;;4948530;28;20224;-69
2022/03/15 09:31:56;;;;;;;14.87;6.07;;;10.80;99.90;;;;;;4948014;28;20189;-68
2022/03/15 09:34:22;;;;;;;11.50;5.80;;;10.90;99.90;;;;;;4944735;28;20204;-70
2022/03/15 09:36:49;;;;;;;16.10;5.53;;;11.10;99.90;;;;;;4951222;28;20185;-71
2022/03/15 09:39:15;;;;;;;10.53;5.97;;;10.90;99.90;;;;;;4949879;28;20263;-69
2022/03/15 09:41:42;;;;;;;18.90;5.80;;;10.70;99.90;;;;;;4951016;28;20181;-71
2022/03/15 09:44:09;;;;;;;12.83;5.97;;;10.50;99.90;;;;;;4948708;28;20193;-70
2022/03/15 09:46:57;;;;;;;12.57;6.20;;;10.50;99.90;;;;;;4948590;28;20181;-69
2022/03/15 09:49:24;;;;;;;13.73;6.93;;;10.50;99.90;;;;;;4952813;28;20213;-69
2022/03/15 09:51:51;;;;;;;17.73;7.47;;;10.70;99.90;;;;;;4946516;28;20177;-69
2022/03/15 09:54:17;;;;;;;19.70;7.03;;;11.00;99.90;;;;;;4948434;28;20179;-68
2022/03/15 09:56:43;;;;;;;21.93;7.10;;;11.20;99.90;;;;;;4947564;28;20268;-70
2022/03/15 09:59:17;;;;;;;14.40;6.03;;;11.60;99.90;;;;;;4944534;28;20375;-69
2022/03/15 10:01:44;;;;;;;17.10;6.40;;;11.50;99.90;;;;;;4946241;28;20184;-69
2022/03/15 10:04:10;;;;;;;15.00;5.03;;;11.60;99.90;;;;;;4950157;29;20243;-71
2022/03/15 10:06:39;;;;;;;15.17;6.27;;;11.70;99.90;;;;;;4951496;28;20632;-69
2022/03/15 10:09:05;;;;;;;4.67;3.87;;;11.70;99.90;;;;;;4951322;28;20220;-69
2022/03/15 10:11:31;;;;;;;7.13;4.13;;;11.90;99.90;;;;;;4952259;29;20200;-71
2022/03/15 10:13:58;;;;;;;5.63;3.30;;;12.10;99.90;;;;;;4953938;28;20185;-70
2022/03/15 10:16:30;;;;;;;6.50;2.73;;;12.10;99.90;;;;;;4946104;28;20185;-70
2022/03/15 10:18:57;;;;;;;7.23;3.80;;;12.10;99.90;;;;;;4952909;28;20184;-68
2022/03/15 10:21:25;;;;;;;6.47;3.20;;;12.30;99.90;;;;;;4952272;28;20193;-70
2022/03/15 10:23:55;;;;;;;4.13;3.60;;;12.50;99.90;;;;;;4949851;28;20263;-69
2022/03/15 10:26:23;;;;;;;6.37;3.40;;;12.60;99.90;;;;;;4949512;28;20264;-70
2022/03/15 10:28:49;;;;;;;5.13;3.03;;;12.60;99.90;;;;;;4948316;28;20671;-70
2022/03/15 10:31:16;;;;;;;3.13;2.83;;;12.70;99.90;;;;;;4942944;28;20267;-70
2022/03/15 10:33:42;;;;;;;3.00;2.70;;;12.70;99.90;;;;;;4950050;28;20196;-69
2022/03/15 10:36:18;;;;;;;3.03;2.73;;;12.70;99.90;;;;;;4953451;28;20195;-69
2022/03/15 10:38:49;;;;;;;2.37;2.20;;;12.80;99.90;;;;;;4950963;28;20214;-70
2022/03/15 10:41:16;;;;;;;2.50;2.30;;;12.80;99.90;;;;;;4950741;28;20176;-69
2022/03/15 10:43:42;;;;;;;2.50;2.30;;;12.80;99.90;;;;;;4949457;28;20384;-70
2022/03/15 10:46:13;;;;;;;5.90;2.70;;;12.70;99.90;;;;;;4943612;28;20172;-70
2022/03/15 10:48:39;;;;;;;2.60;2.37;;;12.70;99.90;;;;;;4950584;28;20209;-70
2022/03/15 10:51:14;;;;;;;3.97;2.50;;;12.70;99.90;;;;;;4949027;28;20653;-70
2022/03/15 10:53:45;;;;;;;2.50;2.27;;;12.70;99.90;;;;;;4949481;28;20275;-70
2022/03/15 10:56:20;;;;;;;4.03;2.80;;;12.60;99.90;;;;;;4943842;28;20177;-71
2022/03/15 10:59:06;;;;;;;2.20;2.00;;;12.60;99.90;;;;;;4944944;28;20263;-69
2022/03/15 11:01:41;;;;;;;2.63;2.23;;;12.50;99.90;;;;;;4950029;28;20623;-69
2022/03/15 11:04:09;;;;;;;2.20;1.80;;;12.40;99.90;;;;;;4945137;28;20180;-70
2022/03/15 11:06:40;;;;;;;2.90;2.00;;;12.40;99.90;;;;;;4938847;29;20204;-69
2022/03/15 11:09:26;;;;;;;2.17;1.47;;;12.40;99.90;;;;;;4953337;28;20375;-70
2022/03/15 11:12:06;;;;;;;4.30;1.53;;;12.70;99.90;;;;;;4942005;28;20177;-68
2022/03/15 11:14:39;;;;;;;0.97;0.93;;;12.90;99.90;;;;;;4953110;28;20192;-68
2022/03/15 11:17:13;;;;;;;3.37;1.40;;;13.10;99.90;;;;;;4952331;28;20279;-71
2022/03/15 11:19:44;;;;;;;2.30;1.30;;;13.50;99.90;;;;;;4946675;29;20195;-68
2022/03/15 11:22:13;;;;;;;1.37;1.27;;;13.80;99.90;;;;;;4951862;28;20286;-69
2022/03/15 11:24:43;;;;;;;1.77;1.40;;;13.80;99.90;;;;;;4953052;28;20259;-69
2022/03/15 11:27:12;;;;;;;2.37;1.23;;;13.80;99.90;;;;;;4951566;28;20204;-69
2022/03/15 11:29:40;;;;;;;1.47;1.20;;;13.90;99.90;;;;;;4952338;28;20240;-68
2022/03/15 11:32:06;;;;;;;1.33;1.13;;;14.10;99.90;;;;;;4951718;28;20184;-71
2022/03/15 11:34:33;;;;;;;1.33;1.13;;;14.80;99.90;;;;;;4935815;28;20176;-70
2022/03/15 11:37:00;;;;;;;1.07;1.03;;;14.70;99.50;;;;;;4941540;29;20223;-69
2022/03/15 11:39:25;;;;;;;3.23;1.47;;;14.10;99.90;;;;;;4952533;28;20229;-69
2022/03/15 11:41:52;;;;;;;2.87;1.30;;;14.00;99.90;;;;;;4953173;28;20187;-69
2022/03/15 11:44:31;;;;;;;38.23;24.90;;;14.00;99.90;;;;;;4952923;28;20233;-68
2022/03/15 11:47:08;;;;;;;3.20;2.50;;;14.40;99.90;;;;;;4953360;28;20227;-71
2022/03/15 11:50:16;;;;;;;4.47;1.47;;;14.60;99.60;;;;;;4953331;28;20208;-69
2022/03/15 11:53:20;;;;;;;1.43;1.00;;;14.80;99.40;;;;;;4934470;29;20512;-68
2022/03/15 11:55:52;;;;;;;0.80;0.80;;;14.50;99.50;;;;;;4945597;29;20169;-68
2022/03/15 11:58:26;;;;;;;1.40;1.20;;;13.60;99.90;;;;;;4953254;28;20208;-68
2022/03/15 12:00:53;;;;;;;1.80;1.70;;;13.60;99.90;;;;;;4952881;28;20199;-68
2022/03/15 12:03:22;;;;;;;1.77;1.07;;;13.80;99.90;;;;;;4951981;28;20277;-67
2022/03/15 12:05:51;;;;;;;1.77;1.57;;;13.40;99.90;;;;;;4949949;28;20172;-68
2022/03/15 12:08:20;;;;;;;3.17;2.20;;;13.50;99.90;;;;;;4943940;29;20563;-70
2022/03/15 12:10:55;;;;;;;5.20;4.53;;;13.40;99.90;;;;;;4944955;28;20189;-70
2022/03/15 12:13:45;;;;;;;1.73;1.50;;;13.50;99.90;;;;;;4947062;28;20204;-70
2022/03/15 12:16:15;;;;;;;11.13;3.73;;;13.30;99.90;;;;;;4943694;28;20188;-70
2022/03/15 12:19:06;;;;;;;7.07;2.77;;;13.20;99.90;;;;;;4951949;28;20589;-71
2022/03/15 12:21:32;;;;;;;0.93;0.90;;;13.80;99.90;;;;;;4949353;29;20251;-69
2022/03/15 12:23:57;;;;;;;0.80;0.80;;;13.70;99.90;;;;;;4952175;28;20696;-70
2022/03/15 12:26:30;;;;;;;7.93;4.20;;;13.30;99.90;;;;;;4948615;28;20168;-68
2022/03/15 12:29:02;;;;;;;6.80;5.90;;;13.50;99.90;;;;;;4944207;29;20244;-69
2022/03/15 12:31:42;;;;;;;8.50;6.40;;;13.70;99.90;;;;;;4940372;28;20559;-69
2022/03/15 12:34:10;;;;;;;8.67;5.83;;;14.00;99.90;;;;;;4949549;29;20180;-68
2022/03/15 12:36:45;;;;;;;11.90;6.03;;;13.50;99.90;;;;;;4949811;28;20178;-69
2022/03/15 12:39:14;;;;;;;13.43;6.67;;;13.30;99.90;;;;;;4944160;29;20271;-69
2022/03/15 12:41:40;;;;;;;9.87;6.10;;;13.60;99.90;;;;;;4952769;28;20190;-69
2022/03/15 12:44:08;;;;;;;16.83;5.70;;;13.90;99.90;;;;;;4955594;28;20656;-69
2022/03/15 12:46:37;;;;;;;9.13;5.73;;;14.00;99.90;;;;;;4951551;29;20216;-69